Latest Weather Observations for Avalon

IDV60901

Issued at 6:11 am EST Monday 31 August 2015 (issued every 10 minutes, with the page automatically refreshed every 10 minutes)

About weather observations | Map of Melbourne area stations | Latest observations for Melbourne area | Other Formats
Station Details ID: 087113 Name: AVALON AIRPORT Lat: -38.03 Lon: 144.48 Height: 10.6 m
Data from the previous 72 hours. | See also: Recent months at Avalon
Date/Time
EST
Tmp

°C
App
Tmp
°C
Dew
Point
°C
Rel
Hum
%
Delta-T

°C
Wind Press
QNH
hPa
Press
MSL
hPa
Rain
since
9 am
mm
Dir
 
Spd
km/h
Gust
km/h
Spd
kts
Gust
kts
31/06:00am 6.0 2.7 4.5 90 0.6 W 11 11 6 6 1021.1 1021.1 0.0
31/05:30am 6.8 3.3 5.3 90 0.7 W 13 17 7 9 1021.1 1021.1 0.0
31/05:00am 7.1 3.6 5.6 90 0.7 W 13 20 7 11 1021.1 1021.1 0.0
31/04:30am 7.1 3.6 5.6 90 0.7 W 13 17 7 9 1021.0 1021.0 0.0
31/04:00am 7.0 3.5 5.5 90 0.7 W 13 17 7 9 1021.1 1021.1 0.0
31/03:30am 7.2 2.6 5.5 89 0.8 W 19 22 10 12 1021.1 1021.1 0.0
31/03:00am 7.0 3.2 5.6 91 0.6 W 15 20 8 11 1021.3 1021.3 0.0
31/02:30am 7.1 3.1 5.1 87 0.9 W 15 17 8 9 1021.6 1021.6 0.0
31/02:00am 7.1 4.4 5.6 90 0.7 W 9 11 5 6 1022.1 1022.1 0.0
31/01:30am 6.8 4.3 5.0 88 0.8 WNW 7 11 4 6 1022.3 1022.3 0.0
31/01:00am 6.6 3.7 4.6 87 0.9 WSW 9 13 5 7 1022.6 1022.6 0.0
31/12:30am 6.3 2.5 4.1 86 0.9 W 13 17 7 9 1022.7 1022.7 0.0
31/12:00am 7.0 3.4 4.8 86 1.0 WNW 13 15 7 8 1022.9 1022.9 0.0
 
Date/Time
EST
Tmp

°C
App
Tmp
°C
Dew
Point
°C
Rel
Hum
%
Delta-T

°C
Wind Press
QNH
hPa
Press
MSL
hPa
Rain
since
9 am
mm
Dir
 
Spd
km/h
Gust
km/h
Spd
kts
Gust
kts
30/11:30pm 6.4 2.9 3.6 82 1.2 W 11 13 6 7 1023.2 1023.2 0.0
30/11:00pm 8.1 4.4 4.7 79 1.5 W 13 15 7 8 1023.3 1023.3 0.0
30/10:30pm 8.5 5.6 4.9 78 1.6 W 9 13 5 7 1023.5 1023.5 0.0
30/10:00pm 8.7 5.9 5.3 79 1.5 W 9 11 5 6 1023.8 1023.8 0.0
30/09:30pm 9.0 5.8 5.2 77 1.7 WSW 11 13 6 7 1023.9 1023.9 0.0
30/09:00pm 9.1 5.5 4.9 75 1.9 WSW 13 17 7 9 1024.0 1024.0 0.0
30/08:30pm 9.0 6.3 5.4 78 1.6 WSW 9 13 5 7 1024.0 1024.0 0.0
30/08:00pm 9.0 5.9 5.4 78 1.6 SW 11 19 6 10 1023.8 1023.8 0.0
30/07:30pm 8.5 5.8 5.6 82 1.3 SSW 9 11 5 6 1023.8 1023.8 0.0
30/07:00pm 8.6 4.3 5.4 80 1.4 SSW 17 22 9 12 1023.7 1023.7 0.0
30/06:30pm 9.5 4.6 5.3 75 1.9 SSW 20 26 11 14 1023.8 1023.8 0.0
30/06:00pm 9.3 5.0 5.1 75 1.9 S 17 20 9 11 1023.4 1023.4 0.0
30/05:30pm 9.9 4.5 4.7 70 2.3 S 22 28 12 15 1023.3 1023.3 0.0
30/05:00pm 10.8 5.9 5.1 68 2.6 S 20 24 11 13 1023.2 1023.2 0.0
30/04:30pm 11.2 6.8 4.9 65 2.9 S 17 22 9 12 1023.3 1023.3 0.0
30/04:00pm 11.9 7.1 4.6 61 3.3 S 19 24 10 13 1023.4 1023.4 0.0
30/03:30pm 11.8 6.4 4.5 61 3.3 S 22 28 12 15 1023.5 1023.5 0.0
30/03:00pm 11.7 5.7 5.1 64 3.0 SSW 26 33 14 18 1023.5 1023.5 0.0
30/02:30pm 12.3 6.8 5.7 64 3.1 SSW 24 32 13 17 1023.6 1023.6 0.0
30/02:00pm 12.6 6.6 5.5 62 3.3 SSW 26 35 14 19 1023.7 1023.7 0.0
30/01:30pm 12.8 6.4 5.0 59 3.6 SSW 28 35 15 19 1023.8 1023.8 0.0
30/01:00pm 12.7 6.7 5.1 60 3.5 SSW 26 33 14 18 1024.1 1024.1 0.0
30/12:30pm 12.6 6.6 5.5 62 3.3 SSW 26 33 14 18 1024.5 1024.5 0.0
30/12:00pm 12.5 6.2 5.7 63 3.2 SSW 28 37 15 20 1024.9 1024.9 0.0
30/11:30am 12.1 5.8 5.7 65 3.0 SSW 28 35 15 19 1025.2 1025.2 0.0
30/11:00am 11.3 4.5 5.0 65 2.9 SSW 30 35 16 19 1025.4 1025.4 0.0
30/10:30am 11.8 5.6 6.1 68 2.7 SSW 28 35 15 19 1025.4 1025.4 0.0
30/10:00am 10.9 5.5 6.5 74 2.1 SSW 24 32 13 17 1025.6 1025.6 0.0
30/09:30am 9.8 5.9 6.9 82 1.4 WSW 17 24 9 13 1025.7 1025.7 0.0
30/09:00am 8.9 5.8 7.4 90 0.7 W 13 17 7 9 1025.8 1025.8 0.4
30/08:30am 8.7 4.8 7.2 90 0.7 W 17 24 9 13 1025.8 1025.8 0.4
30/08:00am 8.4 4.5 7.2 92 0.6 W 17 22 9 12 1025.7 1025.7 0.4
30/07:30am 8.1 4.9 7.0 93 0.5 W 13 20 7 11 1025.4 1025.4 0.4
30/07:00am 7.9 3.9 6.8 93 0.5 W 17 24 9 13 1025.0 1025.0 0.4
30/06:30am 7.9 4.3 6.8 93 0.5 W 15 19 8 10 1024.8 1024.8 0.4
30/06:00am 7.8 5.0 7.1 95 0.3 W 11 17 6 9 1024.6 1024.6 0.4
30/05:30am 7.7 4.6 7.1 96 0.3 W 13 17 7 9 1024.5 1024.5 0.4
30/05:00am 7.7 4.2 7.3 97 0.2 W 15 19 8 10 1024.5 1024.5 0.4
30/04:30am 7.6 3.7 7.2 97 0.2 W 17 20 9 11 1024.4 1024.4 0.4
30/04:00am 7.8 4.3 7.2 96 0.3 W 15 22 8 12 1024.5 1024.5 0.4
30/03:30am 7.8 4.0 7.4 97 0.2 W 17 20 9 11 1024.6 1024.6 0.4
30/03:00am 7.7 3.9 7.4 98 0.1 W 17 20 9 11 1024.9 1024.9 0.4
30/02:30am 7.7 3.8 7.3 97 0.2 W 17 20 9 11 1025.0 1025.0 0.4
30/02:00am 7.9 4.5 7.5 97 0.2 W 15 20 8 11 1025.3 1025.3 0.4
30/01:51am 8.0 3.8 7.6 97 0.2 W 19 24 10 13 1025.3 1025.3 0.4
30/01:39am 8.1 4.3 7.7 97 0.2 W 17 20 9 11 1025.3 1025.3 0.4
30/01:30am 8.0 5.0 7.6 97 0.2 W 13 17 7 9 1025.5 1025.5 0.4
30/01:00am 7.9 4.8 7.3 96 0.3 WSW 13 19 7 10 1025.8 1025.8 0.4
30/12:30am 8.1 5.4 7.5 96 0.3 WSW 11 17 6 9 1025.9 1025.9 0.4
30/12:00am 8.1 4.3 7.7 97 0.2 WSW 17 26 9 14 1026.0 1026.0 0.4
 
Date/Time
EST
Tmp

°C
App
Tmp
°C
Dew
Point
°C
Rel
Hum
%
Delta-T

°C
Wind Press
QNH
hPa
Press
MSL
hPa
Rain
since
9 am
mm
Dir
 
Spd
km/h
Gust
km/h
Spd
kts
Gust
kts
29/11:30pm 8.3 5.0 7.9 97 0.2 W 15 20 8 11 1026.2 1026.2 0.4
29/11:00pm 8.5 5.6 8.1 97 0.2 W 13 20 7 11 1026.4 1026.4 0.4
29/10:30pm 8.8 5.5 8.2 96 0.3 WSW 15 19 8 10 1026.6 1026.6 0.4
29/10:00pm 9.0 5.3 7.8 92 0.6 SW 17 24 9 13 1026.6 1026.6 0.2
29/09:30pm 9.0 5.3 7.8 92 0.6 WSW 17 26 9 14 1026.4 1026.4 0.2
29/09:00pm 9.3 5.2 7.7 90 0.8 SW 19 26 10 14 1026.3 1026.3 0.2
29/08:30pm 9.3 5.1 8.1 92 0.6 SW 20 26 11 14 1026.2 1026.2 0.2
29/08:00pm 9.2 4.8 7.6 90 0.8 WSW 20 26 11 14 1026.3 1026.3 0.2
29/07:30pm 9.3 5.1 7.3 87 0.9 SW 19 22 10 12 1026.3 1026.3 0.0
29/07:00pm 9.9 5.1 7.3 84 1.2 SW 22 30 12 16 1026.2 1026.2 0.0
29/06:30pm 9.6 5.4 7.4 86 1.0 SW 19 28 10 15 1025.9 1025.9 0.0
29/06:00pm 9.8 3.8 7.1 83 1.3 SW 28 33 15 18 1025.7 1025.7 0.0
29/05:30pm 9.7 3.7 7.1 84 1.2 SW 28 37 15 20 1025.5 1025.5 0.0
29/05:00pm 10.3 5.0 7.0 80 1.6 SW 24 35 13 19 1025.3 1025.3 0.0
29/04:30pm 11.1 5.6 7.4 78 1.8 SW 26 32 14 17 1025.3 1025.3 0.0
29/04:00pm 10.8 4.0 7.7 81 1.5 SW 33 43 18 23 1025.5 1025.5 0.0
29/03:30pm 10.4 4.3 8.3 87 1.0 SSW 30 41 16 22 1025.5 1025.5 0.0
29/03:00pm 10.3 4.1 7.9 85 1.2 SW 30 39 16 21 1025.5 1025.5 0.0
29/02:30pm 10.3 3.5 7.9 85 1.2 SSW 33 46 18 25 1025.6 1025.6 0.0
29/02:00pm 10.8 4.9 7.5 80 1.6 SW 28 46 15 25 1025.7 1025.7 0.0
29/01:30pm 11.3 6.1 7.4 77 1.9 WSW 24 30 13 16 1025.8 1025.8 0.0
29/01:00pm 10.8 4.5 7.3 79 1.7 SW 30 37 16 20 1026.1 1026.1 0.0
29/12:57pm 10.7 4.8 7.6 81 1.5 SW 28 37 15 20 1026.2 1026.2 0.0
29/12:38pm 10.0 6.0 8.3 89 0.8 WSW 19 33 10 18 1026.5 1026.5 0.0
29/12:30pm 10.0 5.8 8.4 90 0.8 WSW 20 32 11 17 1026.5 1026.5 0.0
29/12:27pm 9.2 4.8 7.5 89 0.8 WSW 20 32 11 17 1026.7 1026.7 0.0
29/12:19pm 9.1 3.8 6.9 86 1.0 W 24 32 13 17 1026.8 1026.8 0.0
29/12:00pm 9.1 3.7 6.5 84 1.2 WSW 24 32 13 17 1026.9 1026.9 0.0
29/11:30am 10.1 4.6 5.9 75 1.9 W 24 35 13 19 1027.1 1027.1 0.0
29/11:00am 8.3 1.9 5.1 80 1.4 WSW 28 35 15 19 1027.4 1027.4 0.0
29/10:30am 8.7 3.3 4.5 75 1.9 W 22 33 12 18 1027.4 1027.4 0.0
29/10:00am 8.0 2.8 3.7 74 1.8 W 20 26 11 14 1027.5 1027.5 0.0
29/09:30am 8.2 3.0 3.3 71 2.1 W 20 28 11 15 1027.5 1027.5 0.0
29/09:00am 7.1 1.9 2.4 72 1.9 W 19 24 10 13 1027.6 1027.6 0.0
29/08:30am 6.5 1.3 2.2 74 1.8 W 19 26 10 14 1027.7 1027.7 0.0
29/08:00am 6.0 1.5 2.3 77 1.5 W 15 19 8 10 1027.6 1027.6 0.0
29/07:30am 4.9 0.3 1.7 80 1.3 WNW 15 19 8 10 1027.2 1027.2 0.0
29/07:00am 3.7 -0.9 1.4 85 0.9 W 15 19 8 10 1027.1 1027.1 0.0
29/06:30am 2.4 -2.4 0.3 86 0.8 W 15 17 8 9 1026.9 1026.9 0.0
29/06:00am 2.7 -1.7 0.3 84 0.9 W 13 17 7 9 1026.8 1026.8 0.0
29/05:30am 3.2 -1.9 0.6 83 1.0 W 17 19 9 10 1026.8 1026.8 0.0
29/05:00am 4.9 -0.4 1.7 80 1.3 W 19 22 10 12 1026.7 1026.7 0.0
29/04:30am 4.0 0.7 0.3 77 1.4 WNW 7 11 4 6 1026.5 1026.5 0.0
29/04:00am 6.8 2.2 1.3 68 2.2 SSW 15 20 8 11 1026.6 1026.6 0.0
29/03:30am 6.4 1.3 0.7 67 2.2 S 17 20 9 11 1026.6 1026.6 0.0
29/03:00am 6.4 0.9 0.9 68 2.2 SSW 19 24 10 13 1026.6 1026.6 0.0
29/02:30am 5.2 1.4 1.7 78 1.4 WSW 11 15 6 8 1026.8 1026.8 0.0
29/02:00am 6.0 2.0 2.6 79 1.4 W 13 17 7 9 1027.0 1027.0 0.0
29/01:30am 6.0 2.0 2.6 79 1.4 W 13 15 7 8 1027.1 1027.1 0.0
29/01:00am 6.5 2.8 2.6 76 1.6 WSW 11 15 6 8 1027.1 1027.1 0.0
29/12:30am 6.3 1.0 2.0 74 1.7 W 19 24 10 13 1026.9 1026.9 0.0
29/12:00am 6.2 0.9 1.9 74 1.7 W 19 26 10 14 1026.9 1026.9 0.0
 
Date/Time
EST
Tmp

°C
App
Tmp
°C
Dew
Point
°C
Rel
Hum
%
Delta-T

°C
Wind Press
QNH
hPa
Press
MSL
hPa
Rain
since
9 am
mm
Dir
 
Spd
km/h
Gust
km/h
Spd
kts
Gust
kts
28/11:30pm 6.3 1.1 2.2 75 1.7 W 19 22 10 12 1026.9 1026.9 0.0
28/11:00pm 6.0 0.7 1.9 75 1.6 W 19 22 10 12 1027.1 1027.1 0.0
28/10:30pm 5.7 1.5 1.8 76 1.6 WNW 13 17 7 9 1027.2 1027.2 0.0
28/10:00pm 5.6 0.7 1.7 76 1.5 WNW 17 20 9 11 1027.2 1027.2 0.0
28/09:30pm 6.2 1.7 2.1 75 1.7 WNW 15 19 8 10 1027.3 1027.3 0.0
28/09:00pm 5.1 0.4 1.2 76 1.5 W 15 17 8 9 1027.2 1027.2 0.0
28/08:30pm 6.5 1.9 1.8 72 1.9 SW 15 19 8 10 1027.1 1027.1 0.0
28/08:00pm 7.0 1.7 1.7 69 2.1 SW 19 22 10 12 1026.8 1026.8 0.0
28/07:30pm 7.5 1.7 2.4 70 2.1 SW 22 26 12 14 1026.6 1026.6 0.0
28/07:00pm 8.8 2.7 3.0 67 2.5 SW 24 35 13 19 1026.6 1026.6 0.0
28/06:30pm 9.3 3.6 3.1 65 2.7 SSW 22 30 12 16 1026.3 1026.3 0.0
28/06:00pm 9.2 2.7 2.5 63 2.8 SSW 26 35 14 19 1026.0 1026.0 0.0
28/05:30pm 9.7 3.0 3.7 66 2.6 SSW 28 37 15 20 1025.8 1025.8 0.0
28/05:00pm 10.2 2.7 3.3 62 3.0 SSW 32 39 17 21 1025.6 1025.6 0.0
28/04:30pm 10.4 2.7 3.2 61 3.1 SSW 33 41 18 22 1025.4 1025.4 0.0
28/04:00pm 11.1 3.8 4.3 63 3.0 S 32 44 17 24 1025.4 1025.4 0.0
28/03:30pm 11.2 3.9 5.3 67 2.7 SSW 33 43 18 23 1025.3 1025.3 0.0
28/03:00pm 11.5 4.2 5.6 67 2.7 SSW 33 43 18 23 1025.4 1025.4 0.0
28/02:30pm 12.6 5.5 6.6 67 2.9 S 33 41 18 22 1025.3 1025.3 0.0
28/02:00pm 13.5 6.7 7.1 65 3.1 SSW 32 39 17 21 1025.2 1025.2 0.0
28/01:30pm 13.2 6.7 8.1 71 2.5 S 32 41 17 22 1025.2 1025.2 0.0
28/01:00pm 13.4 7.1 7.6 68 2.8 SSW 30 37 16 20 1025.4 1025.4 0.0
28/12:30pm 14.3 8.9 7.8 65 3.2 SSW 26 35 14 19 1025.8 1025.8 0.0
28/12:00pm 13.1 7.7 6.2 63 3.3 SSW 24 32 13 17 1026.2 1026.2 0.0
28/11:30am 13.6 8.2 6.2 61 3.5 SSW 24 32 13 17 1026.4 1026.4 0.0
28/11:00am 11.9 6.0 6.0 67 2.7 SSW 26 35 14 19 1026.5 1026.5 0.0
28/10:30am 11.7 7.3 6.6 71 2.4 WSW 19 24 10 13 1026.5 1026.5 0.0
28/10:00am 12.3 8.3 6.8 69 2.6 WSW 17 24 9 13 1026.5 1026.5 0.0
28/09:30am 10.5 6.7 7.7 83 1.3 WSW 17 20 9 11 1026.4 1026.4 0.0
28/09:00am 9.6 5.7 8.5 93 0.5 W 19 22 10 12 1026.2 1026.2 0.2
28/08:30am 9.0 4.8 8.1 94 0.4 W 20 24 11 13 1026.1 1026.1 0.2
28/08:00am 8.3 5.0 8.0 98 0.1 W 15 20 8 11 1026.0 1026.0 0.2
28/07:30am 7.8 4.0 7.5 98 0.1 W 17 20 9 11 1025.7 1025.7 0.2
28/07:00am 7.6 4.1 7.3 98 0.1 W 15 20 8 11 1025.4 1025.4 0.2
28/06:30am 7.3 3.7 6.7 96 0.3 W 15 19 8 10 1025.3 1025.3 0.2

Latest Capital City Observations: Canberra | Sydney | Melbourne | Brisbane | Adelaide | Perth | Hobart | Darwin

Other Formats:

Comma delimited format used in spreadsheet applications
http://www.bom.gov.au/fwo/IDV60901/IDV60901.94854.axf

JavaScript Object Notation format (JSON) in row-major order
http://www.bom.gov.au/fwo/IDV60901/IDV60901.94854.json